createdAt,value
2022-12-09T00:02:21.380Z,6.87
2022-12-09T00:04:49.880Z,7.03
2022-12-09T00:07:18.098Z,7.53
2022-12-09T00:09:46.312Z,6.57
2022-12-09T00:12:14.377Z,6.33
2022-12-09T00:14:42.432Z,7.17
2022-12-09T00:17:10.897Z,6.57
2022-12-09T00:19:40.569Z,8.93
2022-12-09T00:22:08.689Z,7.70
2022-12-09T00:24:36.871Z,7.90
2022-12-09T00:27:05.393Z,6.53
2022-12-09T00:29:33.802Z,7.17
2022-12-09T00:32:02.990Z,5.67
2022-12-09T00:34:31.153Z,7.07
2022-12-09T00:37:00.874Z,7.47
2022-12-09T00:39:29.014Z,7.90
2022-12-09T00:41:57.078Z,9.60
2022-12-09T00:44:25.226Z,7.90
2022-12-09T00:46:53.371Z,9.93
2022-12-09T00:49:21.733Z,7.23
2022-12-09T00:51:49.975Z,11.37
2022-12-09T00:54:19.444Z,9.60
2022-12-09T00:56:47.614Z,7.27
2022-12-09T00:59:15.824Z,6.97
2022-12-09T01:01:44.076Z,14.47
2022-12-09T01:04:12.724Z,12.37
2022-12-09T01:06:41.602Z,9.63
2022-12-09T01:09:09.992Z,9.17
2022-12-09T01:11:39.612Z,13.73
2022-12-09T01:14:07.894Z,8.60
2022-12-09T01:16:36.439Z,9.10
2022-12-09T01:19:07.904Z,9.03
2022-12-09T01:21:36.895Z,13.40
2022-12-09T01:24:10.209Z,7.67
2022-12-09T01:26:40.073Z,9.23
2022-12-09T01:29:08.488Z,7.77
2022-12-09T01:31:36.907Z,9.50
2022-12-09T01:34:05.753Z,8.87
2022-12-09T01:36:34.282Z,10.33
2022-12-09T01:39:04.111Z,14.00
2022-12-09T01:41:32.280Z,10.63
2022-12-09T01:44:22.085Z,10.07
2022-12-09T01:46:54.900Z,9.40
2022-12-09T01:49:28.848Z,9.13
2022-12-09T01:52:04.611Z,9.67
2022-12-09T01:54:34.013Z,11.00
2022-12-09T01:57:04.153Z,9.77
2022-12-09T01:59:34.133Z,8.53
2022-12-09T02:02:05.050Z,12.50
2022-12-09T02:04:41.161Z,6.07
2022-12-09T02:07:11.689Z,9.53
2022-12-09T02:09:41.475Z,8.20
2022-12-09T02:12:15.660Z,9.87
2022-12-09T02:14:54.932Z,8.70
2022-12-09T02:17:32.211Z,8.63
2022-12-09T02:20:12.581Z,6.70
2022-12-09T02:22:46.101Z,8.43
2022-12-09T02:25:29.043Z,10.17
2022-12-09T02:28:25.897Z,9.03
2022-12-09T02:31:07.366Z,6.60
2022-12-09T02:33:46.214Z,9.70
2022-12-09T02:36:21.042Z,6.63
2022-12-09T02:38:53.116Z,6.90
2022-12-09T02:41:26.901Z,8.27
2022-12-09T02:44:00.557Z,6.30
2022-12-09T02:46:35.404Z,7.57
2022-12-09T02:49:06.750Z,7.67
2022-12-09T02:51:42.279Z,9.83
2022-12-09T02:54:15.938Z,13.10
2022-12-09T02:56:54.657Z,6.63
2022-12-09T02:59:23.897Z,8.83
2022-12-09T03:02:04.635Z,12.37
2022-12-09T03:04:33.556Z,7.93
2022-12-09T03:07:21.314Z,8.97
2022-12-09T03:09:59.817Z,10.50
2022-12-09T03:12:34.229Z,10.60
2022-12-09T03:15:06.837Z,9.37
2022-12-09T03:17:37.917Z,8.63
2022-12-09T03:20:12.902Z,8.20
2022-12-09T03:22:44.981Z,9.43
2022-12-09T03:25:19.512Z,9.97
2022-12-09T03:27:54.790Z,9.27
2022-12-09T03:30:23.214Z,8.70
2022-12-09T03:32:54.253Z,7.57
2022-12-09T03:35:28.012Z,6.40
2022-12-09T03:38:00.008Z,8.50
2022-12-09T03:40:30.795Z,6.33
2022-12-09T03:43:05.483Z,9.40
2022-12-09T03:45:41.003Z,7.37
2022-12-09T03:48:10.344Z,8.63
2022-12-09T03:50:47.894Z,8.63
2022-12-09T03:53:23.294Z,8.17
2022-12-09T03:55:58.598Z,6.57
2022-12-09T03:58:28.255Z,7.00
2022-12-09T04:00:56.838Z,9.17
2022-12-09T04:03:25.394Z,7.27
2022-12-09T04:05:53.655Z,7.53
2022-12-09T04:08:23.365Z,9.17
2022-12-09T04:10:52.118Z,9.00
2022-12-09T04:13:20.416Z,8.33
2022-12-09T04:15:48.480Z,10.83
2022-12-09T04:18:16.883Z,6.17
2022-12-09T04:20:45.458Z,7.00
2022-12-09T04:23:13.580Z,9.67
2022-12-09T04:25:43.238Z,7.27
2022-12-09T04:28:11.526Z,7.90
2022-12-09T04:30:39.825Z,7.83
2022-12-09T04:33:07.880Z,7.60
2022-12-09T04:35:36.096Z,8.30
2022-12-09T04:38:04.425Z,13.03
2022-12-09T04:40:32.722Z,8.97
2022-12-09T04:43:02.479Z,9.07
2022-12-09T04:45:31.032Z,7.77
2022-12-09T04:47:59.753Z,8.87
2022-12-09T04:50:28.282Z,7.37
2022-12-09T04:52:56.640Z,9.33
2022-12-09T04:55:24.850Z,9.40
2022-12-09T04:57:53.048Z,8.50
2022-12-09T05:00:23.696Z,8.27
2022-12-09T05:02:52.140Z,7.60
2022-12-09T05:05:22.023Z,6.40
2022-12-09T05:07:50.741Z,8.03
2022-12-09T05:10:19.478Z,8.27
2022-12-09T05:12:48.065Z,8.80
2022-12-09T05:15:16.862Z,7.70
2022-12-09T05:17:46.818Z,10.80
2022-12-09T05:20:16.011Z,9.83
2022-12-09T05:22:44.198Z,8.23
2022-12-09T05:25:12.684Z,8.43
2022-12-09T05:27:41.139Z,8.83
2022-12-09T05:30:10.860Z,10.07
2022-12-09T05:32:39.293Z,8.13
2022-12-09T05:35:10.371Z,10.10
2022-12-09T05:37:38.584Z,12.73
2022-12-09T05:40:09.244Z,7.73
2022-12-09T05:42:41.293Z,8.60
2022-12-09T05:45:11.796Z,8.03
2022-12-09T05:47:40.245Z,8.63
2022-12-09T05:50:11.782Z,8.03
2022-12-09T05:52:41.481Z,9.43
2022-12-09T05:55:11.896Z,9.97
2022-12-09T05:57:40.334Z,8.13
2022-12-09T06:00:10.834Z,12.37
2022-12-09T06:02:42.393Z,6.67
2022-12-09T06:05:12.342Z,9.37
2022-12-09T06:07:41.686Z,9.20
2022-12-09T06:10:11.664Z,9.77
2022-12-09T06:12:40.423Z,7.63
2022-12-09T06:15:11.368Z,7.27
2022-12-09T06:17:41.211Z,7.13
2022-12-09T06:20:11.992Z,8.93
2022-12-09T06:22:40.773Z,8.90
2022-12-09T06:25:10.431Z,7.70
2022-12-09T06:27:39.556Z,8.17
2022-12-09T06:30:09.546Z,7.20
2022-12-09T06:32:37.662Z,7.90
2022-12-09T06:35:08.433Z,9.77
2022-12-09T06:37:38.544Z,8.80
2022-12-09T06:40:08.647Z,6.90
2022-12-09T06:42:37.095Z,7.63
2022-12-09T06:45:06.734Z,9.30
2022-12-09T06:47:35.380Z,8.87
2022-12-09T06:50:09.027Z,8.33
2022-12-09T06:52:40.244Z,7.80
2022-12-09T06:55:11.348Z,8.47
2022-12-09T06:57:40.065Z,10.40
2022-12-09T07:00:10.003Z,7.57
2022-12-09T07:02:38.439Z,11.30
2022-12-09T07:05:11.669Z,6.93
2022-12-09T07:07:41.933Z,8.50
2022-12-09T07:10:12.149Z,7.60
2022-12-09T07:12:40.701Z,8.30
2022-12-09T07:15:11.084Z,10.13
2022-12-09T07:17:39.932Z,7.70
2022-12-09T07:20:11.184Z,10.53
2022-12-09T07:22:40.925Z,7.50
2022-12-09T07:25:10.984Z,6.87
2022-12-09T07:27:40.397Z,9.37
2022-12-09T07:30:10.315Z,7.03
2022-12-09T07:32:38.628Z,9.47
2022-12-09T07:35:08.473Z,9.80
2022-12-09T07:37:37.421Z,8.47
2022-12-09T07:40:09.242Z,12.03
2022-12-09T07:42:37.883Z,8.73
2022-12-09T07:45:08.308Z,21.10
2022-12-09T07:47:37.488Z,14.23
2022-12-09T07:50:07.732Z,11.37
2022-12-09T07:52:36.310Z,12.37
2022-12-09T07:55:07.764Z,9.03
2022-12-09T07:57:38.441Z,6.57
2022-12-09T08:00:09.380Z,8.13
2022-12-09T08:02:40.278Z,7.03
2022-12-09T08:05:10.404Z,8.70
2022-12-09T08:07:43.974Z,7.93
2022-12-09T08:10:16.893Z,9.03
2022-12-09T08:12:46.774Z,8.57
2022-12-09T08:15:17.043Z,10.27
2022-12-09T08:17:46.341Z,7.47
2022-12-09T08:20:15.810Z,14.10
2022-12-09T08:22:44.864Z,14.50
2022-12-09T08:25:15.296Z,10.53
2022-12-09T08:27:44.112Z,10.87
2022-12-09T08:30:13.788Z,15.10
2022-12-09T08:32:42.685Z,15.10
2022-12-09T08:35:15.184Z,18.77
2022-12-09T08:37:44.430Z,15.30
2022-12-09T08:40:17.476Z,12.57
2022-12-09T08:42:45.818Z,8.83
2022-12-09T08:45:14.457Z,9.07
2022-12-09T08:47:43.183Z,10.80
2022-12-09T08:50:12.804Z,13.57
2022-12-09T08:52:43.028Z,12.73
2022-12-09T08:55:11.468Z,11.93
2022-12-09T08:57:41.180Z,18.77
2022-12-09T09:00:13.575Z,10.60
2022-12-09T09:02:42.157Z,11.20
2022-12-09T09:05:11.560Z,13.27
2022-12-09T09:07:40.791Z,11.23
2022-12-09T09:10:11.050Z,10.63
2022-12-09T09:12:43.879Z,15.27
2022-12-09T09:15:13.431Z,12.10
2022-12-09T09:17:48.162Z,11.20
2022-12-09T09:20:20.038Z,13.37
2022-12-09T09:22:48.553Z,10.63
2022-12-09T09:25:17.057Z,13.37
2022-12-09T09:27:46.626Z,15.23
2022-12-09T09:30:15.988Z,17.23
2022-12-09T09:32:44.640Z,10.47
2022-12-09T09:35:13.101Z,10.30
2022-12-09T09:37:41.729Z,13.63
2022-12-09T09:40:13.536Z,12.47
2022-12-09T09:42:50.560Z,16.33
2022-12-09T09:45:22.089Z,18.07
2022-12-09T09:47:55.258Z,21.10
2022-12-09T09:50:30.939Z,13.83
2022-12-09T09:53:09.725Z,14.53
2022-12-09T09:55:45.425Z,12.80
2022-12-09T09:58:25.479Z,17.47
2022-12-09T10:01:05.486Z,12.23
2022-12-09T10:03:48.697Z,12.70
2022-12-09T10:06:34.231Z,11.90
2022-12-09T10:09:13.313Z,13.93
2022-12-09T10:11:56.272Z,13.40
2022-12-09T10:14:41.940Z,11.60
2022-12-09T10:17:27.120Z,12.80
2022-12-09T10:20:03.637Z,13.10
2022-12-09T10:22:43.897Z,11.90
2022-12-09T10:25:21.999Z,15.50
2022-12-09T10:27:57.662Z,13.90
2022-12-09T10:30:35.328Z,13.97
2022-12-09T10:33:04.998Z,10.73
2022-12-09T10:35:34.790Z,13.90
2022-12-09T10:38:09.844Z,11.70
2022-12-09T10:40:55.104Z,15.47
2022-12-09T10:43:38.848Z,11.33
2022-12-09T10:46:20.010Z,10.97
2022-12-09T10:48:57.595Z,16.47
2022-12-09T10:51:29.053Z,12.33
2022-12-09T10:54:01.148Z,12.20
2022-12-09T10:56:32.662Z,14.27
2022-12-09T10:59:27.963Z,10.57
2022-12-09T11:02:01.574Z,10.93
2022-12-09T11:04:33.909Z,16.03
2022-12-09T11:07:15.667Z,11.73
2022-12-09T11:09:46.758Z,13.80
2022-12-09T11:12:36.659Z,14.33
2022-12-09T11:15:30.426Z,13.27
2022-12-09T11:18:04.512Z,14.20
2022-12-09T11:20:35.452Z,13.03
2022-12-09T11:23:07.448Z,12.57
2022-12-09T11:25:38.506Z,11.50
2022-12-09T11:28:24.597Z,13.73
2022-12-09T11:31:27.541Z,11.37
2022-12-09T11:33:54.430Z,13.80
2022-12-09T11:36:29.975Z,11.73
2022-12-09T11:39:20.738Z,11.80
2022-12-09T11:42:16.112Z,13.03
2022-12-09T11:44:56.520Z,13.63
2022-12-09T11:47:44.843Z,14.10
2022-12-09T11:50:26.118Z,13.63
2022-12-09T11:53:18.326Z,14.13
2022-12-09T11:55:52.787Z,12.57
2022-12-09T11:58:26.346Z,13.03
2022-12-09T12:01:04.512Z,13.67
2022-12-09T12:03:38.745Z,13.37
2022-12-09T12:06:17.293Z,15.20
2022-12-09T12:08:51.513Z,14.70
2022-12-09T12:11:26.202Z,15.27
2022-12-09T12:14:04.437Z,11.60
2022-12-09T12:16:49.179Z,12.17
2022-12-09T12:19:24.858Z,12.70
2022-12-09T12:22:24.484Z,13.10
2022-12-09T12:25:23.935Z,15.07
2022-12-09T12:28:12.897Z,16.10
2022-12-09T12:30:49.047Z,12.87
2022-12-09T12:34:00.858Z,12.37
2022-12-09T12:36:40.191Z,11.07
2022-12-09T12:39:28.077Z,13.10
2022-12-09T12:42:05.994Z,13.07
2022-12-09T12:45:08.087Z,13.83
2022-12-09T12:47:45.853Z,15.63
2022-12-09T12:50:34.240Z,12.90
2022-12-09T12:53:15.242Z,15.00
2022-12-09T12:55:59.084Z,13.70
2022-12-09T12:59:01.368Z,12.33
2022-12-09T13:01:35.186Z,13.13
2022-12-09T13:04:18.629Z,14.23
2022-12-09T13:06:53.128Z,12.90
2022-12-09T13:09:28.066Z,13.13
2022-12-09T13:12:08.788Z,11.93
2022-12-09T13:14:52.080Z,15.50
2022-12-09T13:17:25.241Z,16.40
2022-12-09T13:19:56.762Z,15.40
2022-12-09T13:22:33.769Z,20.63
2022-12-09T13:25:14.373Z,13.53
2022-12-09T13:27:52.570Z,15.20
2022-12-09T13:30:23.725Z,16.80
2022-12-09T13:33:26.968Z,14.67
2022-12-09T13:36:06.284Z,30.13
2022-12-09T13:38:39.804Z,13.60
2022-12-09T13:41:51.850Z,17.47
2022-12-09T13:44:22.190Z,17.40
2022-12-09T13:46:50.339Z,14.80
2022-12-09T13:49:21.313Z,12.33
2022-12-09T13:51:52.485Z,16.07
2022-12-09T13:54:23.695Z,17.07
2022-12-09T13:57:19.005Z,14.93
2022-12-09T13:59:52.490Z,14.00
2022-12-09T14:02:36.585Z,18.77
2022-12-09T14:05:13.098Z,17.30
2022-12-09T14:07:47.988Z,17.60
2022-12-09T14:10:39.133Z,17.60
2022-12-09T14:13:28.150Z,19.17
2022-12-09T14:16:34.773Z,15.33
2022-12-09T14:19:45.817Z,17.90
2022-12-09T14:23:03.698Z,15.20
2022-12-09T14:26:06.967Z,15.67
2022-12-09T14:28:54.766Z,16.57
2022-12-09T14:31:59.804Z,16.83
2022-12-09T14:34:42.501Z,16.27
2022-12-09T14:37:46.954Z,16.73
2022-12-09T14:41:04.493Z,15.77
2022-12-09T14:43:58.489Z,14.23
2022-12-09T14:46:30.381Z,17.17
2022-12-09T14:49:05.219Z,17.53
2022-12-09T14:51:38.465Z,20.03
2022-12-09T14:54:15.702Z,16.47
2022-12-09T14:56:49.220Z,14.53
2022-12-09T14:59:21.582Z,13.87
2022-12-09T15:01:57.169Z,15.10
2022-12-09T15:04:32.339Z,15.40
2022-12-09T15:07:13.098Z,16.20
2022-12-09T15:09:55.005Z,17.50
2022-12-09T15:12:30.563Z,18.80
2022-12-09T15:15:05.182Z,15.17
2022-12-09T15:17:42.013Z,18.37
2022-12-09T15:20:28.522Z,20.27
2022-12-09T15:23:00.106Z,16.70
2022-12-09T15:25:30.529Z,17.50
2022-12-09T15:28:05.722Z,14.40
2022-12-09T15:30:36.323Z,16.57
2022-12-09T15:33:13.773Z,15.67
2022-12-09T15:35:50.321Z,18.60
2022-12-09T15:38:18.948Z,14.20
2022-12-09T15:41:02.894Z,13.93
2022-12-09T15:43:32.732Z,19.03
2022-12-09T15:46:01.142Z,17.97
2022-12-09T15:48:35.442Z,15.27
2022-12-09T15:51:10.690Z,16.07
2022-12-09T15:53:43.755Z,17.13
2022-12-09T15:56:18.426Z,16.10
2022-12-09T15:58:51.985Z,16.80
2022-12-09T16:01:24.003Z,17.17
2022-12-09T16:06:29.821Z,19.17
2022-12-09T16:08:58.849Z,16.03
2022-12-09T16:11:38.679Z,17.50
2022-12-09T16:14:08.493Z,21.43
2022-12-09T16:16:43.796Z,16.83
2022-12-09T16:19:27.682Z,15.50
2022-12-09T16:22:00.651Z,16.17
2022-12-09T16:24:50.698Z,17.90
2022-12-09T16:27:22.257Z,15.80
2022-12-09T16:29:53.073Z,17.63
2022-12-09T16:32:26.256Z,20.43
2022-12-09T16:34:57.968Z,18.30
2022-12-09T16:37:37.200Z,17.03
2022-12-09T16:41:03.894Z,16.60
2022-12-09T16:43:32.841Z,17.40
2022-12-09T16:46:13.354Z,23.83
2022-12-09T16:48:42.451Z,34.80
2022-12-09T16:51:15.054Z,18.60
2022-12-09T16:53:47.533Z,20.40
2022-12-09T16:56:20.775Z,16.70
2022-12-09T16:58:49.142Z,20.00
2022-12-09T17:01:19.725Z,19.13
2022-12-09T17:03:52.243Z,17.97
2022-12-09T17:06:21.825Z,16.90
2022-12-09T17:08:51.299Z,16.70
2022-12-09T17:11:21.648Z,17.47
2022-12-09T17:13:50.308Z,18.80
2022-12-09T17:16:21.950Z,18.10
2022-12-09T17:18:50.892Z,17.90
2022-12-09T17:21:20.068Z,16.93
2022-12-09T17:23:49.936Z,17.10
2022-12-09T17:26:20.668Z,19.67
2022-12-09T17:28:50.322Z,16.63
2022-12-09T17:31:21.113Z,18.87
2022-12-09T17:33:49.791Z,19.90
2022-12-09T17:36:19.054Z,17.63
2022-12-09T17:38:50.853Z,17.60
2022-12-09T17:41:23.456Z,19.53
2022-12-09T17:43:51.627Z,21.60
2022-12-09T17:46:20.131Z,18.83
2022-12-09T17:48:48.279Z,20.00
2022-12-09T17:51:19.337Z,18.23
2022-12-09T17:53:50.135Z,23.17
2022-12-09T17:56:22.058Z,21.93
2022-12-09T17:58:58.018Z,21.07
2022-12-09T18:01:26.402Z,19.53
2022-12-09T18:04:00.476Z,20.70
2022-12-09T18:06:34.306Z,20.20
2022-12-09T18:09:03.213Z,23.67
2022-12-09T18:11:32.998Z,21.83
2022-12-09T18:14:01.960Z,23.10
2022-12-09T18:16:30.567Z,23.67
2022-12-09T18:19:04.294Z,25.23
2022-12-09T18:21:33.593Z,21.70
2022-12-09T18:24:01.779Z,21.53
2022-12-09T18:26:32.970Z,21.87
2022-12-09T18:29:03.713Z,21.17
2022-12-09T18:31:31.970Z,23.70
2022-12-09T18:34:00.082Z,18.07
2022-12-09T18:36:29.555Z,18.73
2022-12-09T18:38:59.359Z,23.17
2022-12-09T18:41:31.357Z,18.60
2022-12-09T18:44:07.409Z,23.33
2022-12-09T18:46:38.185Z,21.53
2022-12-09T18:49:09.079Z,20.13
2022-12-09T18:51:39.503Z,20.37
2022-12-09T18:54:09.207Z,20.13
2022-12-09T18:56:37.659Z,22.23
2022-12-09T18:59:08.734Z,18.50
2022-12-09T19:01:40.151Z,17.87
2022-12-09T19:04:13.409Z,20.10
2022-12-09T19:06:44.136Z,21.00
2022-12-09T19:09:16.316Z,20.67
2022-12-09T19:11:46.290Z,20.50
2022-12-09T19:14:17.974Z,20.50
2022-12-09T19:16:47.158Z,20.70
2022-12-09T19:19:17.565Z,17.93
2022-12-09T19:21:46.523Z,17.47
2022-12-09T19:24:17.308Z,19.93
2022-12-09T19:26:45.839Z,20.27
2022-12-09T19:29:17.804Z,20.10
2022-12-09T19:31:48.836Z,20.73
2022-12-09T19:34:19.167Z,22.13
2022-12-09T19:36:49.519Z,16.60
2022-12-09T19:39:20.665Z,21.30
2022-12-09T19:41:49.218Z,19.17
2022-12-09T19:44:44.344Z,21.00
2022-12-09T19:47:14.439Z,22.83
2022-12-09T19:49:44.335Z,19.73
2022-12-09T19:52:15.648Z,20.80
2022-12-09T19:54:43.825Z,25.07
2022-12-09T19:57:11.875Z,22.67
2022-12-09T19:59:41.621Z,22.33
2022-12-09T20:02:13.939Z,18.37
2022-12-09T20:04:50.765Z,27.50
2022-12-09T20:07:20.048Z,23.17
2022-12-09T20:09:48.673Z,20.50
2022-12-09T20:12:16.875Z,18.13
2022-12-09T20:14:46.317Z,23.07
2022-12-09T20:17:16.540Z,22.30
2022-12-09T20:19:44.642Z,21.07
2022-12-09T20:22:12.820Z,21.73
2022-12-09T20:24:40.988Z,19.23
2022-12-09T20:27:09.140Z,20.73
2022-12-09T20:29:38.336Z,21.90
2022-12-09T20:32:10.232Z,20.63
2022-12-09T20:34:39.161Z,22.00
2022-12-09T20:37:07.425Z,19.77
2022-12-09T20:39:35.474Z,22.43
2022-12-09T20:42:03.573Z,29.40
2022-12-09T20:44:32.565Z,28.70
2022-12-09T20:47:00.705Z,23.70
2022-12-09T20:49:30.612Z,22.67
2022-12-09T20:51:59.334Z,22.70
2022-12-09T20:54:27.518Z,23.17
2022-12-09T20:56:55.746Z,22.63
2022-12-09T20:59:24.020Z,20.03
2022-12-09T21:01:54.071Z,23.90
2022-12-09T21:04:22.343Z,21.37
2022-12-09T21:06:51.893Z,19.87
2022-12-09T21:09:22.862Z,22.07
2022-12-09T21:11:51.391Z,19.70
2022-12-09T21:14:20.153Z,23.53
2022-12-09T21:16:50.408Z,20.20
2022-12-09T21:19:24.901Z,20.60
2022-12-09T21:21:54.837Z,21.13
2022-12-09T21:24:24.565Z,19.70
2022-12-09T21:26:55.428Z,21.77
2022-12-09T21:29:31.264Z,21.07
2022-12-09T21:32:01.048Z,17.23
2022-12-09T21:34:29.234Z,23.10
2022-12-09T21:36:58.997Z,17.93
2022-12-09T21:39:28.444Z,23.27
2022-12-09T21:41:56.537Z,22.87
2022-12-09T21:44:25.435Z,21.30
2022-12-09T21:46:53.554Z,21.93
2022-12-09T21:49:21.582Z,22.53
2022-12-09T21:51:49.615Z,24.27
2022-12-09T21:54:19.204Z,24.03
2022-12-09T21:56:47.280Z,25.23
2022-12-09T21:59:15.586Z,22.43
2022-12-09T22:01:44.129Z,26.30
2022-12-09T22:04:16.222Z,23.20
2022-12-09T22:06:47.465Z,23.20
2022-12-09T22:09:17.234Z,20.63
2022-12-09T22:11:46.680Z,23.20
2022-12-09T22:14:14.798Z,18.67
2022-12-09T22:16:45.721Z,21.30
2022-12-09T22:19:17.788Z,23.57
2022-12-09T22:21:46.291Z,25.80
2022-12-09T22:24:16.122Z,20.20
2022-12-09T22:26:46.423Z,23.63
2022-12-09T22:29:16.700Z,22.50
2022-12-09T22:31:45.816Z,25.70
2022-12-09T22:34:17.085Z,25.17
2022-12-09T22:36:46.684Z,21.70
2022-12-09T22:39:16.701Z,23.50
2022-12-09T22:41:47.148Z,26.57
2022-12-09T22:44:17.997Z,19.33
2022-12-09T22:46:47.559Z,23.43
2022-12-09T22:49:17.580Z,24.13
2022-12-09T22:51:46.999Z,25.13
2022-12-09T22:54:15.268Z,20.67
2022-12-09T22:56:45.986Z,24.03
2022-12-09T22:59:15.501Z,22.87
2022-12-09T23:01:46.674Z,25.57
2022-12-09T23:04:17.256Z,19.23
2022-12-09T23:06:46.226Z,20.20
2022-12-09T23:09:21.368Z,24.13
2022-12-09T23:11:52.122Z,19.90
2022-12-09T23:14:20.549Z,17.77
2022-12-09T23:16:48.639Z,24.93
2022-12-09T23:19:16.752Z,20.20
2022-12-09T23:21:45.003Z,21.50
2022-12-09T23:24:21.025Z,21.67
2022-12-09T23:26:55.695Z,25.30
2022-12-09T23:29:24.359Z,23.93
2022-12-09T23:31:52.480Z,22.73
2022-12-09T23:34:21.084Z,20.53
2022-12-09T23:36:49.189Z,22.23
2022-12-09T23:39:19.297Z,24.60
2022-12-09T23:41:47.807Z,21.73
2022-12-09T23:44:19.291Z,20.03
2022-12-09T23:46:48.444Z,21.60
2022-12-09T23:49:17.120Z,20.13
2022-12-09T23:51:45.551Z,19.20
2022-12-09T23:54:15.451Z,19.27
2022-12-09T23:56:48.052Z,19.83
2022-12-09T23:59:19.769Z,20.60
